McGehee, Arkansas
Current Conditions -  °F | °C
As of 5:53 PM on Wednesday 26 Nov 2014 (Local Time) from KLLQ Reporting Station
Clear Clear  
Wind Chill: 53°   Ceiling: Unl
Heat Index: 53°   Visibility: 10mi
Dew Point: 35°   Wind: 6mph
Humidity: 50%   Direction: 280°W
Pressure: 30.14"   Gusts: NA
Location:  33.63°N, 91.39°W
Report Text: KLLQ 262353Z AUTO 28005KT 10SM CLR 12/02 A3014 RMK AO2 SLP207 60000 T01170017 10178 20117 51030
Loading
Personal Weather Stations






























Interactive Weather Map New forecast layout! Learn more

10-Day Weather Forecast

Advertisements
Track Severe Weather on mobile